sensor_id;sensor_type;location;lat;lon;timestamp;temperature;humidity
7028;DHT22;3555;53.248;10.336;2023-02-23T00:00:14;8.10;99.90
7028;DHT22;3555;53.248;10.336;2023-02-23T00:02:46;8.20;99.90
7028;DHT22;3555;53.248;10.336;2023-02-23T00:05:14;8.10;99.90
7028;DHT22;3555;53.248;10.336;2023-02-23T00:07:42;8.20;99.90
7028;DHT22;3555;53.248;10.336;2023-02-23T00:10:11;8.10;99.90
7028;DHT22;3555;53.248;10.336;2023-02-23T00:12:39;8.10;99.90
7028;DHT22;3555;53.248;10.336;2023-02-23T00:15:07;8.00;99.90
7028;DHT22;3555;53.248;10.336;2023-02-23T00:17:35;8.10;99.90
7028;DHT22;3555;53.248;10.336;2023-02-23T00:20:04;8.00;99.90
7028;DHT22;3555;53.248;10.336;2023-02-23T00:22:37;8.10;99.90
7028;DHT22;3555;53.248;10.336;2023-02-23T00:25:06;7.90;99.90
7028;DHT22;3555;53.248;10.336;2023-02-23T00:27:34;7.80;99.90
7028;DHT22;3555;53.248;10.336;2023-02-23T00:30:01;7.90;99.90
7028;DHT22;3555;53.248;10.336;2023-02-23T00:32:28;7.80;99.90
7028;DHT22;3555;53.248;10.336;2023-02-23T00:34:56;7.80;99.90
7028;DHT22;3555;53.248;10.336;2023-02-23T00:37:23;7.80;99.90
7028;DHT22;3555;53.248;10.336;2023-02-23T00:39:53;7.90;99.90
7028;DHT22;3555;53.248;10.336;2023-02-23T00:42:21;7.90;99.90
7028;DHT22;3555;53.248;10.336;2023-02-23T00:44:48;7.90;99.90
7028;DHT22;3555;53.248;10.336;2023-02-23T00:47:14;7.80;99.90
7028;DHT22;3555;53.248;10.336;2023-02-23T00:49:41;7.80;99.90
7028;DHT22;3555;53.248;10.336;2023-02-23T00:52:11;7.80;99.90
7028;DHT22;3555;53.248;10.336;2023-02-23T00:54:40;7.80;99.90
7028;DHT22;3555;53.248;10.336;2023-02-23T00:57:07;7.90;99.90
7028;DHT22;3555;53.248;10.336;2023-02-23T00:59:34;7.80;99.90
7028;DHT22;3555;53.248;10.336;2023-02-23T01:02:01;7.90;99.90
7028;DHT22;3555;53.248;10.336;2023-02-23T01:04:28;7.90;99.90
7028;DHT22;3555;53.248;10.336;2023-02-23T01:06:55;7.80;99.90
7028;DHT22;3555;53.248;10.336;2023-02-23T01:09:24;7.90;99.90
7028;DHT22;3555;53.248;10.336;2023-02-23T01:11:54;8.00;99.90
7028;DHT22;3555;53.248;10.336;2023-02-23T01:14:22;7.90;99.90
7028;DHT22;3555;53.248;10.336;2023-02-23T01:16:49;7.90;99.90
7028;DHT22;3555;53.248;10.336;2023-02-23T01:19:16;7.80;99.90
7028;DHT22;3555;53.248;10.336;2023-02-23T01:21:43;7.80;99.90
7028;DHT22;3555;53.248;10.336;2023-02-23T01:24:11;7.90;99.90
7028;DHT22;3555;53.248;10.336;2023-02-23T01:26:40;7.90;99.90
7028;DHT22;3555;53.248;10.336;2023-02-23T01:29:09;7.90;99.90
7028;DHT22;3555;53.248;10.336;2023-02-23T01:31:38;7.70;99.90
7028;DHT22;3555;53.248;10.336;2023-02-23T01:34:06;7.70;99.90
7028;DHT22;3555;53.248;10.336;2023-02-23T01:36:34;7.70;99.90
7028;DHT22;3555;53.248;10.336;2023-02-23T01:39:02;7.70;99.90
7028;DHT22;3555;53.248;10.336;2023-02-23T01:41:32;7.70;99.90
7028;DHT22;3555;53.248;10.336;2023-02-23T01:44:03;7.80;99.90
7028;DHT22;3555;53.248;10.336;2023-02-23T01:46:31;7.80;99.90
7028;DHT22;3555;53.248;10.336;2023-02-23T01:48:58;7.90;99.90
7028;DHT22;3555;53.248;10.336;2023-02-23T01:51:27;8.00;99.90
7028;DHT22;3555;53.248;10.336;2023-02-23T01:53:58;8.00;99.90
7028;DHT22;3555;53.248;10.336;2023-02-23T01:56:29;8.00;99.90
7028;DHT22;3555;53.248;10.336;2023-02-23T01:58:58;7.90;99.90
7028;DHT22;3555;53.248;10.336;2023-02-23T02:01:29;7.90;99.90
7028;DHT22;3555;53.248;10.336;2023-02-23T02:03:57;8.00;99.90
7028;DHT22;3555;53.248;10.336;2023-02-23T02:06:26;7.80;99.90
7028;DHT22;3555;53.248;10.336;2023-02-23T02:08:58;7.80;99.90
7028;DHT22;3555;53.248;10.336;2023-02-23T02:11:25;7.80;99.90
7028;DHT22;3555;53.248;10.336;2023-02-23T02:13:57;7.80;99.90
7028;DHT22;3555;53.248;10.336;2023-02-23T02:16:38;7.70;99.90
7028;DHT22;3555;53.248;10.336;2023-02-23T02:19:42;7.70;99.90
7028;DHT22;3555;53.248;10.336;2023-02-23T02:25:37;7.40;99.90
7028;DHT22;3555;53.248;10.336;2023-02-23T02:28:29;7.60;99.90
7028;DHT22;3555;53.248;10.336;2023-02-23T02:31:27;7.70;99.90
7028;DHT22;3555;53.248;10.336;2023-02-23T02:37:28;7.80;99.90
7028;DHT22;3555;53.248;10.336;2023-02-23T02:40:04;7.70;99.90
7028;DHT22;3555;53.248;10.336;2023-02-23T02:43:01;7.80;99.90
7028;DHT22;3555;53.248;10.336;2023-02-23T02:45:41;7.90;99.90
7028;DHT22;3555;53.248;10.336;2023-02-23T02:48:14;7.90;99.90
7028;DHT22;3555;53.248;10.336;2023-02-23T02:50:45;7.80;99.90
7028;DHT22;3555;53.248;10.336;2023-02-23T02:53:19;7.70;99.90
7028;DHT22;3555;53.248;10.336;2023-02-23T02:55:48;7.70;99.90
7028;DHT22;3555;53.248;10.336;2023-02-23T02:58:17;7.70;99.90
7028;DHT22;3555;53.248;10.336;2023-02-23T03:00:47;7.80;99.90
7028;DHT22;3555;53.248;10.336;2023-02-23T03:03:35;7.90;99.90
7028;DHT22;3555;53.248;10.336;2023-02-23T03:06:23;7.80;99.90
7028;DHT22;3555;53.248;10.336;2023-02-23T03:09:24;7.90;99.90
7028;DHT22;3555;53.248;10.336;2023-02-23T03:12:18;7.90;99.90
7028;DHT22;3555;53.248;10.336;2023-02-23T03:15:17;7.90;99.90
7028;DHT22;3555;53.248;10.336;2023-02-23T03:18:18;7.70;99.90
7028;DHT22;3555;53.248;10.336;2023-02-23T03:21:11;7.50;99.90
7028;DHT22;3555;53.248;10.336;2023-02-23T03:24:04;7.40;99.90
7028;DHT22;3555;53.248;10.336;2023-02-23T03:26:57;7.20;99.90
7028;DHT22;3555;53.248;10.336;2023-02-23T03:29:51;7.20;99.90
7028;DHT22;3555;53.248;10.336;2023-02-23T03:32:42;7.30;99.90
7028;DHT22;3555;53.248;10.336;2023-02-23T03:35:32;7.30;99.90
7028;DHT22;3555;53.248;10.336;2023-02-23T03:38:23;7.30;99.90
7028;DHT22;3555;53.248;10.336;2023-02-23T03:41:11;7.30;99.90
7028;DHT22;3555;53.248;10.336;2023-02-23T03:44:02;7.20;99.90
7028;DHT22;3555;53.248;10.336;2023-02-23T03:46:49;7.10;99.90
7028;DHT22;3555;53.248;10.336;2023-02-23T03:49:36;7.00;99.90
7028;DHT22;3555;53.248;10.336;2023-02-23T03:52:24;6.90;99.90
7028;DHT22;3555;53.248;10.336;2023-02-23T03:55:15;6.80;99.90
7028;DHT22;3555;53.248;10.336;2023-02-23T03:58:05;6.70;99.90
7028;DHT22;3555;53.248;10.336;2023-02-23T04:00:55;6.70;99.90
7028;DHT22;3555;53.248;10.336;2023-02-23T04:03:43;6.50;99.90
7028;DHT22;3555;53.248;10.336;2023-02-23T04:06:32;6.60;99.90
7028;DHT22;3555;53.248;10.336;2023-02-23T04:09:19;6.50;99.90
7028;DHT22;3555;53.248;10.336;2023-02-23T04:12:08;6.40;99.90
7028;DHT22;3555;53.248;10.336;2023-02-23T04:14:56;6.40;99.90
7028;DHT22;3555;53.248;10.336;2023-02-23T04:17:26;6.50;99.90
7028;DHT22;3555;53.248;10.336;2023-02-23T04:19:59;6.50;99.90
7028;DHT22;3555;53.248;10.336;2023-02-23T04:22:26;6.60;99.90
7028;DHT22;3555;53.248;10.336;2023-02-23T04:24:53;6.60;99.90
7028;DHT22;3555;53.248;10.336;2023-02-23T04:27:19;6.60;99.90
7028;DHT22;3555;53.248;10.336;2023-02-23T04:29:46;6.60;99.90
7028;DHT22;3555;53.248;10.336;2023-02-23T04:32:15;6.60;99.90
7028;DHT22;3555;53.248;10.336;2023-02-23T04:34:44;6.60;99.90
7028;DHT22;3555;53.248;10.336;2023-02-23T04:37:11;6.70;99.90
7028;DHT22;3555;53.248;10.336;2023-02-23T04:39:38;6.60;99.90
7028;DHT22;3555;53.248;10.336;2023-02-23T04:42:07;6.60;99.90
7028;DHT22;3555;53.248;10.336;2023-02-23T04:44:34;6.50;99.90
7028;DHT22;3555;53.248;10.336;2023-02-23T04:47:01;6.40;99.90
7028;DHT22;3555;53.248;10.336;2023-02-23T04:49:28;6.40;99.90
7028;DHT22;3555;53.248;10.336;2023-02-23T04:51:56;6.40;99.90
7028;DHT22;3555;53.248;10.336;2023-02-23T04:54:24;6.40;99.90
7028;DHT22;3555;53.248;10.336;2023-02-23T04:56:50;6.50;99.90
7028;DHT22;3555;53.248;10.336;2023-02-23T04:59:17;6.50;99.90
7028;DHT22;3555;53.248;10.336;2023-02-23T05:01:44;6.40;99.90
7028;DHT22;3555;53.248;10.336;2023-02-23T05:04:11;6.40;99.90
7028;DHT22;3555;53.248;10.336;2023-02-23T05:06:38;6.30;99.90
7028;DHT22;3555;53.248;10.336;2023-02-23T05:09:06;6.30;99.90
7028;DHT22;3555;53.248;10.336;2023-02-23T05:11:33;6.40;99.90
7028;DHT22;3555;53.248;10.336;2023-02-23T05:14:00;6.40;99.90
7028;DHT22;3555;53.248;10.336;2023-02-23T05:16:26;6.40;99.90
7028;DHT22;3555;53.248;10.336;2023-02-23T05:18:54;6.50;99.90
7028;DHT22;3555;53.248;10.336;2023-02-23T05:21:20;6.40;99.90
7028;DHT22;3555;53.248;10.336;2023-02-23T05:23:48;6.60;99.90
7028;DHT22;3555;53.248;10.336;2023-02-23T05:26:16;6.60;99.90
7028;DHT22;3555;53.248;10.336;2023-02-23T05:28:43;6.60;99.90
7028;DHT22;3555;53.248;10.336;2023-02-23T05:31:11;6.60;99.90
7028;DHT22;3555;53.248;10.336;2023-02-23T05:33:38;6.70;99.90
7028;DHT22;3555;53.248;10.336;2023-02-23T05:36:08;6.70;99.90
7028;DHT22;3555;53.248;10.336;2023-02-23T05:38:36;6.70;99.90
7028;DHT22;3555;53.248;10.336;2023-02-23T05:41:06;6.70;99.90
7028;DHT22;3555;53.248;10.336;2023-02-23T05:43:34;6.70;99.90
7028;DHT22;3555;53.248;10.336;2023-02-23T05:46:05;6.70;99.90
7028;DHT22;3555;53.248;10.336;2023-02-23T05:48:32;6.70;99.90
7028;DHT22;3555;53.248;10.336;2023-02-23T05:51:00;6.70;99.90
7028;DHT22;3555;53.248;10.336;2023-02-23T05:53:27;6.80;99.90
7028;DHT22;3555;53.248;10.336;2023-02-23T05:55:54;7.00;99.90
7028;DHT22;3555;53.248;10.336;2023-02-23T05:58:21;7.20;99.90
7028;DHT22;3555;53.248;10.336;2023-02-23T06:00:49;7.30;99.90
7028;DHT22;3555;53.248;10.336;2023-02-23T06:03:17;7.40;99.90
7028;DHT22;3555;53.248;10.336;2023-02-23T06:05:48;7.50;99.90
7028;DHT22;3555;53.248;10.336;2023-02-23T06:08:16;7.50;99.90
7028;DHT22;3555;53.248;10.336;2023-02-23T06:10:43;7.70;99.90
7028;DHT22;3555;53.248;10.336;2023-02-23T06:13:10;7.70;99.90
7028;DHT22;3555;53.248;10.336;2023-02-23T06:15:37;7.70;99.90
7028;DHT22;3555;53.248;10.336;2023-02-23T06:18:06;7.80;99.90
7028;DHT22;3555;53.248;10.336;2023-02-23T06:20:33;7.80;99.90
7028;DHT22;3555;53.248;10.336;2023-02-23T06:23:00;7.80;99.90
7028;DHT22;3555;53.248;10.336;2023-02-23T06:25:28;7.60;99.90
7028;DHT22;3555;53.248;10.336;2023-02-23T06:27:56;7.10;99.90
7028;DHT22;3555;53.248;10.336;2023-02-23T06:30:23;6.90;99.90
7028;DHT22;3555;53.248;10.336;2023-02-23T06:32:49;6.80;99.90
7028;DHT22;3555;53.248;10.336;2023-02-23T06:35:18;6.90;99.90
7028;DHT22;3555;53.248;10.336;2023-02-23T06:37:45;6.70;99.90
7028;DHT22;3555;53.248;10.336;2023-02-23T06:40:12;6.60;99.90
7028;DHT22;3555;53.248;10.336;2023-02-23T06:42:39;6.60;99.90
7028;DHT22;3555;53.248;10.336;2023-02-23T06:45:06;6.70;99.90
7028;DHT22;3555;53.248;10.336;2023-02-23T06:47:33;6.60;99.90
7028;DHT22;3555;53.248;10.336;2023-02-23T06:50:00;6.70;99.90
7028;DHT22;3555;53.248;10.336;2023-02-23T06:52:29;6.90;99.90
7028;DHT22;3555;53.248;10.336;2023-02-23T06:54:55;7.10;99.90
7028;DHT22;3555;53.248;10.336;2023-02-23T06:57:22;7.20;99.90
7028;DHT22;3555;53.248;10.336;2023-02-23T06:59:49;7.40;99.90
7028;DHT22;3555;53.248;10.336;2023-02-23T07:02:16;7.50;99.90
7028;DHT22;3555;53.248;10.336;2023-02-23T07:04:43;7.60;99.90
7028;DHT22;3555;53.248;10.336;2023-02-23T07:07:10;7.70;99.90
7028;DHT22;3555;53.248;10.336;2023-02-23T07:09:40;7.80;99.90
7028;DHT22;3555;53.248;10.336;2023-02-23T07:12:07;7.80;99.90
7028;DHT22;3555;53.248;10.336;2023-02-23T07:14:35;7.90;99.90
7028;DHT22;3555;53.248;10.336;2023-02-23T07:17:02;8.00;99.90
7028;DHT22;3555;53.248;10.336;2023-02-23T07:19:29;8.00;99.90
7028;DHT22;3555;53.248;10.336;2023-02-23T07:21:56;8.10;99.90
7028;DHT22;3555;53.248;10.336;2023-02-23T07:24:23;8.10;99.90
7028;DHT22;3555;53.248;10.336;2023-02-23T07:26:51;8.20;99.90
7028;DHT22;3555;53.248;10.336;2023-02-23T07:29:18;8.10;99.90
7028;DHT22;3555;53.248;10.336;2023-02-23T07:31:48;8.00;99.90
7028;DHT22;3555;53.248;10.336;2023-02-23T07:34:15;7.90;99.90
7028;DHT22;3555;53.248;10.336;2023-02-23T07:36:42;7.80;99.90
7028;DHT22;3555;53.248;10.336;2023-02-23T07:39:09;7.80;99.90
7028;DHT22;3555;53.248;10.336;2023-02-23T07:41:36;7.70;99.90
7028;DHT22;3555;53.248;10.336;2023-02-23T07:44:04;7.60;99.90
7028;DHT22;3555;53.248;10.336;2023-02-23T07:46:31;7.70;99.90
7028;DHT22;3555;53.248;10.336;2023-02-23T07:48:58;7.70;99.90
7028;DHT22;3555;53.248;10.336;2023-02-23T07:51:25;7.80;99.90
7028;DHT22;3555;53.248;10.336;2023-02-23T07:53:52;7.80;99.90
7028;DHT22;3555;53.248;10.336;2023-02-23T07:56:19;7.80;99.90
7028;DHT22;3555;53.248;10.336;2023-02-23T07:58:46;7.80;99.90
7028;DHT22;3555;53.248;10.336;2023-02-23T08:01:14;7.90;99.90
7028;DHT22;3555;53.248;10.336;2023-02-23T08:03:41;7.70;99.90
7028;DHT22;3555;53.248;10.336;2023-02-23T08:06:14;7.70;99.90
7028;DHT22;3555;53.248;10.336;2023-02-23T08:08:41;7.70;99.90
7028;DHT22;3555;53.248;10.336;2023-02-23T08:11:08;7.60;99.90
7028;DHT22;3555;53.248;10.336;2023-02-23T08:13:36;7.70;99.90
7028;DHT22;3555;53.248;10.336;2023-02-23T08:16:04;7.90;99.90
7028;DHT22;3555;53.248;10.336;2023-02-23T08:18:32;8.00;99.90
7028;DHT22;3555;53.248;10.336;2023-02-23T08:20:59;8.10;99.90
7028;DHT22;3555;53.248;10.336;2023-02-23T08:23:28;8.20;99.90
7028;DHT22;3555;53.248;10.336;2023-02-23T08:25:55;8.30;99.90
7028;DHT22;3555;53.248;10.336;2023-02-23T08:28:24;8.40;99.90
7028;DHT22;3555;53.248;10.336;2023-02-23T08:30:51;8.30;99.90
7028;DHT22;3555;53.248;10.336;2023-02-23T08:33:18;8.20;99.90
7028;DHT22;3555;53.248;10.336;2023-02-23T08:35:46;8.20;99.90
7028;DHT22;3555;53.248;10.336;2023-02-23T08:38:13;8.20;99.90
7028;DHT22;3555;53.248;10.336;2023-02-23T08:40:40;8.30;99.90
7028;DHT22;3555;53.248;10.336;2023-02-23T08:43:07;8.10;99.90
7028;DHT22;3555;53.248;10.336;2023-02-23T08:45:34;8.10;99.90
7028;DHT22;3555;53.248;10.336;2023-02-23T08:48:02;8.20;99.90
7028;DHT22;3555;53.248;10.336;2023-02-23T08:50:29;8.30;99.90
7028;DHT22;3555;53.248;10.336;2023-02-23T08:52:57;8.30;99.90
7028;DHT22;3555;53.248;10.336;2023-02-23T08:55:24;8.40;99.90
7028;DHT22;3555;53.248;10.336;2023-02-23T08:57:51;8.40;99.90
7028;DHT22;3555;53.248;10.336;2023-02-23T09:00:19;8.50;99.90
7028;DHT22;3555;53.248;10.336;2023-02-23T09:02:46;8.50;99.90
7028;DHT22;3555;53.248;10.336;2023-02-23T09:05:13;8.40;99.90
7028;DHT22;3555;53.248;10.336;2023-02-23T09:07:40;8.40;99.90
7028;DHT22;3555;53.248;10.336;2023-02-23T09:10:12;8.40;99.90
7028;DHT22;3555;53.248;10.336;2023-02-23T09:12:40;8.50;99.90
7028;DHT22;3555;53.248;10.336;2023-02-23T09:15:08;8.40;99.90
7028;DHT22;3555;53.248;10.336;2023-02-23T09:17:35;8.50;99.90
7028;DHT22;3555;53.248;10.336;2023-02-23T09:20:02;8.50;99.90
7028;DHT22;3555;53.248;10.336;2023-02-23T09:22:30;8.50;99.90
7028;DHT22;3555;53.248;10.336;2023-02-23T09:24:57;8.50;99.90
7028;DHT22;3555;53.248;10.336;2023-02-23T09:27:25;8.40;99.90
7028;DHT22;3555;53.248;10.336;2023-02-23T09:29:52;8.40;99.90
7028;DHT22;3555;53.248;10.336;2023-02-23T09:32:18;8.50;99.90
7028;DHT22;3555;53.248;10.336;2023-02-23T09:34:45;8.50;99.90
7028;DHT22;3555;53.248;10.336;2023-02-23T09:37:13;8.60;99.90
7028;DHT22;3555;53.248;10.336;2023-02-23T09:39:40;8.50;99.90
7028;DHT22;3555;53.248;10.336;2023-02-23T09:42:19;8.60;99.90
7028;DHT22;3555;53.248;10.336;2023-02-23T09:45:11;8.50;99.90
7028;DHT22;3555;53.248;10.336;2023-02-23T09:47:48;8.50;99.90
7028;DHT22;3555;53.248;10.336;2023-02-23T09:50:21;8.60;99.90
7028;DHT22;3555;53.248;10.336;2023-02-23T09:52:55;8.80;99.90
7028;DHT22;3555;53.248;10.336;2023-02-23T09:55:24;8.90;99.90
7028;DHT22;3555;53.248;10.336;2023-02-23T09:57:51;9.00;99.90
7028;DHT22;3555;53.248;10.336;2023-02-23T10:00:22;9.10;99.90
7028;DHT22;3555;53.248;10.336;2023-02-23T10:05:44;9.20;99.90
7028;DHT22;3555;53.248;10.336;2023-02-23T10:08:21;9.00;99.90
7028;DHT22;3555;53.248;10.336;2023-02-23T10:10:56;8.90;99.90
7028;DHT22;3555;53.248;10.336;2023-02-23T10:13:30;8.80;99.90
7028;DHT22;3555;53.248;10.336;2023-02-23T10:16:10;8.70;99.90
7028;DHT22;3555;53.248;10.336;2023-02-23T10:18:48;8.80;99.90
7028;DHT22;3555;53.248;10.336;2023-02-23T10:21:22;8.80;99.90
7028;DHT22;3555;53.248;10.336;2023-02-23T10:23:57;9.00;99.90
7028;DHT22;3555;53.248;10.336;2023-02-23T10:26:27;9.10;99.90
7028;DHT22;3555;53.248;10.336;2023-02-23T10:28:59;9.30;99.90
7028;DHT22;3555;53.248;10.336;2023-02-23T10:31:32;9.20;99.90
7028;DHT22;3555;53.248;10.336;2023-02-23T10:34:03;9.20;99.90
7028;DHT22;3555;53.248;10.336;2023-02-23T10:36:36;9.00;99.90
7028;DHT22;3555;53.248;10.336;2023-02-23T10:39:05;9.10;99.90
7028;DHT22;3555;53.248;10.336;2023-02-23T10:41:33;9.20;99.90
7028;DHT22;3555;53.248;10.336;2023-02-23T10:44:00;9.30;99.90
7028;DHT22;3555;53.248;10.336;2023-02-23T10:46:37;9.30;99.90
7028;DHT22;3555;53.248;10.336;2023-02-23T10:49:06;9.20;99.90
7028;DHT22;3555;53.248;10.336;2023-02-23T10:51:36;9.30;99.90
7028;DHT22;3555;53.248;10.336;2023-02-23T10:54:37;9.20;99.90
7028;DHT22;3555;53.248;10.336;2023-02-23T10:57:07;9.30;99.90
7028;DHT22;3555;53.248;10.336;2023-02-23T10:59:40;9.30;99.90
7028;DHT22;3555;53.248;10.336;2023-02-23T11:02:23;9.40;99.90
7028;DHT22;3555;53.248;10.336;2023-02-23T11:04:53;9.40;99.90
7028;DHT22;3555;53.248;10.336;2023-02-23T11:07:22;9.40;99.90
7028;DHT22;3555;53.248;10.336;2023-02-23T11:09:49;9.20;99.90
7028;DHT22;3555;53.248;10.336;2023-02-23T11:12:19;9.20;99.90
7028;DHT22;3555;53.248;10.336;2023-02-23T11:14:48;9.20;99.90
7028;DHT22;3555;53.248;10.336;2023-02-23T11:17:26;9.30;99.90
7028;DHT22;3555;53.248;10.336;2023-02-23T11:19:57;9.30;99.90
7028;DHT22;3555;53.248;10.336;2023-02-23T11:22:30;9.40;99.90
7028;DHT22;3555;53.248;10.336;2023-02-23T11:24:59;9.60;99.90
7028;DHT22;3555;53.248;10.336;2023-02-23T11:27:26;9.60;99.90
7028;DHT22;3555;53.248;10.336;2023-02-23T11:29:55;9.80;99.90
7028;DHT22;3555;53.248;10.336;2023-02-23T11:32:28;9.80;99.90
7028;DHT22;3555;53.248;10.336;2023-02-23T11:35:24;9.70;99.90
7028;DHT22;3555;53.248;10.336;2023-02-23T11:37:53;9.70;99.90
7028;DHT22;3555;53.248;10.336;2023-02-23T11:40:23;9.60;99.90
7028;DHT22;3555;53.248;10.336;2023-02-23T11:42:52;9.50;99.90
7028;DHT22;3555;53.248;10.336;2023-02-23T11:45:21;9.40;99.90
7028;DHT22;3555;53.248;10.336;2023-02-23T11:47:52;9.20;99.90
7028;DHT22;3555;53.248;10.336;2023-02-23T11:50:22;9.20;99.90
7028;DHT22;3555;53.248;10.336;2023-02-23T11:52:54;9.10;99.90
7028;DHT22;3555;53.248;10.336;2023-02-23T11:55:22;9.10;99.90
7028;DHT22;3555;53.248;10.336;2023-02-23T11:57:50;9.00;99.90
7028;DHT22;3555;53.248;10.336;2023-02-23T12:00:22;8.90;99.90
7028;DHT22;3555;53.248;10.336;2023-02-23T12:02:54;9.00;99.90
7028;DHT22;3555;53.248;10.336;2023-02-23T12:05:24;8.80;99.90
7028;DHT22;3555;53.248;10.336;2023-02-23T12:07:56;8.90;99.90
7028;DHT22;3555;53.248;10.336;2023-02-23T12:10:30;9.00;99.90
7028;DHT22;3555;53.248;10.336;2023-02-23T12:13:04;9.00;99.90
7028;DHT22;3555;53.248;10.336;2023-02-23T12:15:40;9.20;99.90
7028;DHT22;3555;53.248;10.336;2023-02-23T12:18:16;9.30;99.90
7028;DHT22;3555;53.248;10.336;2023-02-23T12:20:46;9.40;99.90
7028;DHT22;3555;53.248;10.336;2023-02-23T12:23:17;9.50;99.90
7028;DHT22;3555;53.248;10.336;2023-02-23T12:25:47;9.60;99.90
7028;DHT22;3555;53.248;10.336;2023-02-23T12:28:21;9.60;99.90
7028;DHT22;3555;53.248;10.336;2023-02-23T12:30:56;9.60;99.90
7028;DHT22;3555;53.248;10.336;2023-02-23T12:33:29;9.70;99.90
7028;DHT22;3555;53.248;10.336;2023-02-23T12:36:02;9.60;99.90
7028;DHT22;3555;53.248;10.336;2023-02-23T12:38:47;9.70;99.90
7028;DHT22;3555;53.248;10.336;2023-02-23T12:41:19;9.60;99.90
7028;DHT22;3555;53.248;10.336;2023-02-23T12:43:49;9.50;99.90
7028;DHT22;3555;53.248;10.336;2023-02-23T12:46:20;9.30;99.90
7028;DHT22;3555;53.248;10.336;2023-02-23T12:48:55;9.10;99.90
7028;DHT22;3555;53.248;10.336;2023-02-23T12:51:30;9.10;99.90
7028;DHT22;3555;53.248;10.336;2023-02-23T12:53:58;9.20;99.90
7028;DHT22;3555;53.248;10.336;2023-02-23T12:56:38;9.10;99.90
7028;DHT22;3555;53.248;10.336;2023-02-23T12:59:41;9.10;99.90
7028;DHT22;3555;53.248;10.336;2023-02-23T13:02:13;9.10;99.90
7028;DHT22;3555;53.248;10.336;2023-02-23T13:05:08;9.10;99.90
7028;DHT22;3555;53.248;10.336;2023-02-23T13:07:46;9.00;99.90
7028;DHT22;3555;53.248;10.336;2023-02-23T13:10:21;8.90;99.90
7028;DHT22;3555;53.248;10.336;2023-02-23T13:12:57;9.00;99.90
7028;DHT22;3555;53.248;10.336;2023-02-23T13:15:34;8.80;99.90
7028;DHT22;3555;53.248;10.336;2023-02-23T13:18:12;8.80;99.90
7028;DHT22;3555;53.248;10.336;2023-02-23T13:20:43;8.80;99.90
7028;DHT22;3555;53.248;10.336;2023-02-23T13:23:19;8.90;99.90
7028;DHT22;3555;53.248;10.336;2023-02-23T13:25:52;8.80;99.90
7028;DHT22;3555;53.248;10.336;2023-02-23T13:28:34;8.80;99.90
7028;DHT22;3555;53.248;10.336;2023-02-23T13:31:02;8.70;99.90
7028;DHT22;3555;53.248;10.336;2023-02-23T13:33:30;8.60;99.90
7028;DHT22;3555;53.248;10.336;2023-02-23T13:36:02;8.60;99.90
7028;DHT22;3555;53.248;10.336;2023-02-23T13:38:38;8.50;99.90
7028;DHT22;3555;53.248;10.336;2023-02-23T13:41:12;8.30;99.90
7028;DHT22;3555;53.248;10.336;2023-02-23T13:43:47;8.40;99.90
7028;DHT22;3555;53.248;10.336;2023-02-23T13:46:26;8.40;99.90
7028;DHT22;3555;53.248;10.336;2023-02-23T13:48:58;8.50;99.90
7028;DHT22;3555;53.248;10.336;2023-02-23T13:51:37;8.50;99.90
7028;DHT22;3555;53.248;10.336;2023-02-23T13:54:22;8.50;99.90
7028;DHT22;3555;53.248;10.336;2023-02-23T13:56:51;8.50;99.90
7028;DHT22;3555;53.248;10.336;2023-02-23T13:59:21;8.50;99.90
7028;DHT22;3555;53.248;10.336;2023-02-23T14:01:50;8.60;99.90
7028;DHT22;3555;53.248;10.336;2023-02-23T14:04:21;8.70;99.90
7028;DHT22;3555;53.248;10.336;2023-02-23T14:06:56;8.80;99.90
7028;DHT22;3555;53.248;10.336;2023-02-23T14:09:29;8.80;99.90
7028;DHT22;3555;53.248;10.336;2023-02-23T14:12:03;8.80;99.90
7028;DHT22;3555;53.248;10.336;2023-02-23T14:14:39;8.90;99.90
7028;DHT22;3555;53.248;10.336;2023-02-23T14:17:09;8.80;99.90
7028;DHT22;3555;53.248;10.336;2023-02-23T14:19:37;8.80;99.90
7028;DHT22;3555;53.248;10.336;2023-02-23T14:22:12;8.70;99.90
7028;DHT22;3555;53.248;10.336;2023-02-23T14:24:40;8.70;99.90
7028;DHT22;3555;53.248;10.336;2023-02-23T14:27:35;8.80;99.90
7028;DHT22;3555;53.248;10.336;2023-02-23T14:30:20;8.80;99.90
7028;DHT22;3555;53.248;10.336;2023-02-23T14:32:50;8.80;99.90
7028;DHT22;3555;53.248;10.336;2023-02-23T14:35:41;8.80;99.90
7028;DHT22;3555;53.248;10.336;2023-02-23T14:38:15;8.90;99.90
7028;DHT22;3555;53.248;10.336;2023-02-23T14:40:51;8.90;99.90
7028;DHT22;3555;53.248;10.336;2023-02-23T14:43:41;8.90;99.90
7028;DHT22;3555;53.248;10.336;2023-02-23T14:46:17;9.00;99.90
7028;DHT22;3555;53.248;10.336;2023-02-23T14:48:55;9.00;99.90
7028;DHT22;3555;53.248;10.336;2023-02-23T14:51:29;9.00;99.90
7028;DHT22;3555;53.248;10.336;2023-02-23T14:53:59;9.00;99.90
7028;DHT22;3555;53.248;10.336;2023-02-23T14:56:27;8.80;99.90
7028;DHT22;3555;53.248;10.336;2023-02-23T14:58:55;8.90;99.90
7028;DHT22;3555;53.248;10.336;2023-02-23T15:01:35;9.00;99.90
7028;DHT22;3555;53.248;10.336;2023-02-23T15:04:07;9.00;99.90
7028;DHT22;3555;53.248;10.336;2023-02-23T15:06:35;9.00;99.90
7028;DHT22;3555;53.248;10.336;2023-02-23T15:09:06;9.10;99.90
7028;DHT22;3555;53.248;10.336;2023-02-23T15:11:34;9.00;99.90
7028;DHT22;3555;53.248;10.336;2023-02-23T15:14:02;9.00;99.90
7028;DHT22;3555;53.248;10.336;2023-02-23T15:16:31;8.90;99.90
7028;DHT22;3555;53.248;10.336;2023-02-23T15:19:00;9.00;99.90
7028;DHT22;3555;53.248;10.336;2023-02-23T15:21:28;9.10;99.90
7028;DHT22;3555;53.248;10.336;2023-02-23T15:24:03;9.00;99.90
7028;DHT22;3555;53.248;10.336;2023-02-23T15:26:33;9.10;99.90
7028;DHT22;3555;53.248;10.336;2023-02-23T15:29:12;9.10;99.90
7028;DHT22;3555;53.248;10.336;2023-02-23T15:31:40;9.10;99.90
7028;DHT22;3555;53.248;10.336;2023-02-23T15:34:16;9.20;99.90
7028;DHT22;3555;53.248;10.336;2023-02-23T15:36:47;9.20;99.90
7028;DHT22;3555;53.248;10.336;2023-02-23T15:39:17;9.10;99.90
7028;DHT22;3555;53.248;10.336;2023-02-23T15:41:47;9.10;99.90
7028;DHT22;3555;53.248;10.336;2023-02-23T15:44:19;9.10;99.90
7028;DHT22;3555;53.248;10.336;2023-02-23T15:46:52;9.10;99.90
7028;DHT22;3555;53.248;10.336;2023-02-23T15:49:19;9.20;99.90
7028;DHT22;3555;53.248;10.336;2023-02-23T15:51:50;9.20;99.90
7028;DHT22;3555;53.248;10.336;2023-02-23T15:54:21;9.10;99.90
7028;DHT22;3555;53.248;10.336;2023-02-23T15:56:55;9.00;99.90
7028;DHT22;3555;53.248;10.336;2023-02-23T15:59:26;9.10;99.90
7028;DHT22;3555;53.248;10.336;2023-02-23T16:01:54;9.10;99.90
7028;DHT22;3555;53.248;10.336;2023-02-23T16:04:27;9.10;99.90
7028;DHT22;3555;53.248;10.336;2023-02-23T16:07:06;9.20;99.90
7028;DHT22;3555;53.248;10.336;2023-02-23T16:09:37;9.00;99.90
7028;DHT22;3555;53.248;10.336;2023-02-23T16:12:10;9.00;99.90
7028;DHT22;3555;53.248;10.336;2023-02-23T16:14:43;9.10;99.90
7028;DHT22;3555;53.248;10.336;2023-02-23T16:17:18;9.10;99.90
7028;DHT22;3555;53.248;10.336;2023-02-23T16:19:47;9.20;99.90
7028;DHT22;3555;53.248;10.336;2023-02-23T16:22:24;9.20;99.90
7028;DHT22;3555;53.248;10.336;2023-02-23T16:24:58;9.10;99.90
7028;DHT22;3555;53.248;10.336;2023-02-23T16:27:28;9.20;99.90
7028;DHT22;3555;53.248;10.336;2023-02-23T16:29:57;9.20;99.90
7028;DHT22;3555;53.248;10.336;2023-02-23T16:32:32;9.30;99.90
7028;DHT22;3555;53.248;10.336;2023-02-23T16:35:01;9.20;99.90
7028;DHT22;3555;53.248;10.336;2023-02-23T16:37:28;9.20;99.90
7028;DHT22;3555;53.248;10.336;2023-02-23T16:39:55;9.20;99.90
7028;DHT22;3555;53.248;10.336;2023-02-23T16:42:26;9.20;99.90